createdAt,value
2023-10-20T00:01:17.504Z,98613.25
2023-10-20T00:03:47.473Z,98614.09
2023-10-20T00:06:18.185Z,98620.03
2023-10-20T00:08:48.740Z,98605.66
2023-10-20T00:11:21.432Z,98630.22
2023-10-20T00:13:51.350Z,98627.66
2023-10-20T00:16:27.696Z,98610.75
2023-10-20T00:18:57.885Z,98599.84
2023-10-20T00:21:28.068Z,98612.50
2023-10-20T00:23:57.965Z,98607.38
2023-10-20T00:26:30.561Z,98593.88
2023-10-20T00:29:00.637Z,98602.34
2023-10-20T00:31:31.322Z,98600.63
2023-10-20T00:34:01.555Z,98609.97
2023-10-20T00:36:31.780Z,98588.84
2023-10-20T00:39:01.841Z,98588.81
2023-10-20T00:41:36.172Z,98623.44
2023-10-20T00:44:06.443Z,98593.09
2023-10-20T00:46:36.399Z,98607.38
2023-10-20T00:49:06.954Z,98615.84
2023-10-20T00:51:36.925Z,98597.22
2023-10-20T00:54:07.349Z,98573.56
2023-10-20T00:56:39.921Z,98576.94
2023-10-20T00:59:10.769Z,98589.63
2023-10-20T01:01:40.981Z,98565.91
2023-10-20T01:04:11.100Z,98575.19
2023-10-20T01:06:41.359Z,98525.44
2023-10-20T01:09:11.731Z,98563.41
2023-10-20T01:11:44.319Z,98563.41
2023-10-20T01:14:14.212Z,98543.19
2023-10-20T01:16:44.166Z,98550.78
2023-10-20T01:19:14.097Z,98536.38
2023-10-20T01:21:44.018Z,98494.19
2023-10-20T01:24:16.562Z,98544.81
2023-10-20T01:26:46.982Z,98575.22
2023-10-20T01:29:16.918Z,98554.97
2023-10-20T01:31:46.884Z,98553.22
2023-10-20T01:34:17.204Z,98544.78
2023-10-20T01:36:47.570Z,98485.72
2023-10-20T01:39:20.613Z,98529.56
2023-10-20T01:41:50.797Z,98494.19
2023-10-20T01:44:20.781Z,98500.94
2023-10-20T01:46:52.873Z,98526.25
2023-10-20T01:49:22.845Z,98492.47
2023-10-20T01:51:52.773Z,98510.97
2023-10-20T01:54:25.257Z,98489.03
2023-10-20T01:56:55.167Z,98483.09
2023-10-20T01:59:25.350Z,98484.75
2023-10-20T02:01:55.330Z,98471.25
2023-10-20T02:04:25.349Z,98467.00
2023-10-20T02:06:55.261Z,98468.69
2023-10-20T02:09:27.760Z,98461.06
2023-10-20T02:11:59.592Z,98478.81
2023-10-20T02:14:29.803Z,98465.28
2023-10-20T02:16:59.763Z,98489.84
2023-10-20T02:19:29.700Z,98478.06
2023-10-20T02:22:00.893Z,98465.41
2023-10-20T02:24:33.617Z,98483.13
2023-10-20T02:27:03.650Z,98484.81
2023-10-20T02:29:34.712Z,98467.88
2023-10-20T02:32:04.703Z,98470.41
2023-10-20T02:34:35.910Z,98398.72
2023-10-20T02:37:05.877Z,98444.22
2023-10-20T02:39:38.512Z,98461.88
2023-10-20T02:42:08.667Z,98445.88
2023-10-20T02:44:38.666Z,98450.91
2023-10-20T02:47:09.572Z,98429.69
2023-10-20T02:49:39.513Z,98378.28
2023-10-20T02:52:09.393Z,98420.44
2023-10-20T02:54:41.855Z,98409.47
2023-10-20T02:57:11.796Z,98422.97
2023-10-20T02:59:41.661Z,98417.97
2023-10-20T03:02:11.621Z,98410.31
2023-10-20T03:04:41.645Z,98417.09
2023-10-20T03:07:12.303Z,98407.81
2023-10-20T03:09:44.749Z,98419.63
2023-10-20T03:12:15.382Z,98403.66
2023-10-20T03:14:45.307Z,98420.56
2023-10-20T03:17:16.180Z,98436.56
2023-10-20T03:19:47.492Z,98407.88
2023-10-20T03:22:17.336Z,98421.34
2023-10-20T03:24:49.757Z,98383.44
2023-10-20T03:27:19.702Z,98414.53
2023-10-20T03:29:50.121Z,98414.53
2023-10-20T03:32:20.194Z,98401.84
2023-10-20T03:34:50.468Z,98395.19
2023-10-20T03:37:20.331Z,98401.03
2023-10-20T03:39:54.433Z,98403.50
2023-10-20T03:42:24.314Z,98367.28
2023-10-20T03:44:54.706Z,98390.88
2023-10-20T03:47:29.291Z,98328.50
2023-10-20T03:50:02.102Z,98372.28
2023-10-20T03:52:32.048Z,98380.75
2023-10-20T03:55:04.570Z,98379.88
2023-10-20T03:57:35.434Z,98380.78
2023-10-20T04:00:19.043Z,98370.72
2023-10-20T04:02:52.419Z,98379.06
2023-10-20T04:05:22.363Z,98357.13
2023-10-20T04:07:52.294Z,98312.44
2023-10-20T04:10:25.135Z,98282.00
2023-10-20T04:12:55.368Z,98335.06
2023-10-20T04:15:27.524Z,98297.25
2023-10-20T04:17:58.060Z,98340.19
2023-10-20T04:20:28.051Z,98333.44
2023-10-20T04:23:00.089Z,98346.13
2023-10-20T04:25:34.620Z,98322.47
2023-10-20T04:28:13.386Z,98276.03
2023-10-20T04:30:55.709Z,98305.53
2023-10-20T04:33:38.156Z,98295.38
2023-10-20T04:36:20.687Z,98237.97
2023-10-20T04:39:14.643Z,98286.91
2023-10-20T04:42:19.914Z,98261.66
2023-10-20T04:44:55.599Z,98247.28
2023-10-20T04:47:38.118Z,98270.03
2023-10-20T04:50:21.244Z,98280.19
2023-10-20T04:53:12.146Z,98278.53
2023-10-20T04:56:06.102Z,98286.13
2023-10-20T04:58:45.299Z,98275.19
2023-10-20T05:01:22.742Z,98286.97
2023-10-20T05:03:54.772Z,98282.72
2023-10-20T05:06:27.856Z,98304.72
2023-10-20T05:08:57.791Z,98291.16
2023-10-20T05:11:29.069Z,98265.72
2023-10-20T05:14:01.817Z,98259.78
2023-10-20T05:16:35.186Z,98233.66
2023-10-20T05:19:06.037Z,98232.00
2023-10-20T05:21:39.784Z,98191.56
2023-10-20T05:24:10.819Z,98258.97
2023-10-20T05:26:40.869Z,98250.53
2023-10-20T05:29:13.727Z,98258.09
2023-10-20T05:31:43.748Z,98210.13
2023-10-20T05:34:14.671Z,98248.00
2023-10-20T05:36:45.738Z,98239.56
2023-10-20T05:39:16.508Z,98247.13
2023-10-20T05:41:47.411Z,98253.09
2023-10-20T05:44:23.734Z,98258.19
2023-10-20T05:46:54.741Z,98259.03
2023-10-20T05:49:22.577Z,98254.84
2023-10-20T05:51:53.117Z,98220.19
2023-10-20T05:54:24.799Z,98199.03
2023-10-20T05:56:54.626Z,98216.72
2023-10-20T05:59:27.246Z,98192.31
2023-10-20T06:01:59.744Z,98200.78
2023-10-20T06:04:29.752Z,98209.25
2023-10-20T06:07:00.361Z,98198.28
2023-10-20T06:09:30.218Z,98199.97
2023-10-20T06:12:00.856Z,98212.63
2023-10-20T06:14:33.580Z,98214.19
2023-10-20T06:17:03.605Z,98194.81
2023-10-20T06:19:33.603Z,98188.06
2023-10-20T06:22:04.523Z,98183.00
2023-10-20T06:24:34.668Z,98182.13
2023-10-20T06:27:07.065Z,98109.75
2023-10-20T06:29:48.931Z,98164.47
2023-10-20T06:32:27.402Z,98175.44
2023-10-20T06:35:01.197Z,98140.03
2023-10-20T06:37:37.583Z,98122.31
2023-10-20T06:40:09.736Z,98159.34
2023-10-20T06:42:39.569Z,98123.16
2023-10-20T06:45:12.780Z,98135.69
2023-10-20T06:47:44.178Z,98145.06
2023-10-20T06:50:14.520Z,98136.53
2023-10-20T06:52:44.460Z,98093.59
2023-10-20T06:55:40.253Z,98152.56
2023-10-20T06:58:01.644Z,98168.63
2023-10-20T07:00:35.980Z,98150.03
2023-10-20T07:03:06.235Z,98139.06
2023-10-20T07:05:38.978Z,98138.31
2023-10-20T07:08:09.490Z,98159.34
2023-10-20T07:10:40.018Z,98144.09
2023-10-20T07:13:12.062Z,98152.56
2023-10-20T07:15:44.588Z,98139.03
2023-10-20T07:18:15.051Z,98117.13
2023-10-20T07:20:45.063Z,98108.59
2023-10-20T07:23:15.037Z,98090.19
2023-10-20T07:25:44.872Z,98109.53
2023-10-20T07:28:15.037Z,98119.50
2023-10-20T07:30:47.469Z,98102.53
2023-10-20T07:33:17.564Z,98092.59
2023-10-20T07:35:47.540Z,98095.94
2023-10-20T07:38:18.638Z,98099.25
2023-10-20T07:40:48.703Z,98101.78
2023-10-20T07:43:18.524Z,98116.22
2023-10-20T07:45:51.440Z,98088.31
2023-10-20T07:48:21.399Z,98074.00
2023-10-20T07:50:51.832Z,98078.22
2023-10-20T07:53:21.776Z,98071.56
2023-10-20T07:55:51.729Z,98111.06
2023-10-20T07:58:21.629Z,98077.38
2023-10-20T08:00:54.172Z,98110.25
2023-10-20T08:03:24.808Z,98121.25
2023-10-20T08:05:55.065Z,98110.22
2023-10-20T08:08:25.127Z,98094.13
2023-10-20T08:10:55.276Z,98054.59
2023-10-20T08:13:25.137Z,98065.47
2023-10-20T08:15:57.644Z,98086.41
2023-10-20T08:18:29.560Z,98031.06
2023-10-20T08:21:07.244Z,98094.91
2023-10-20T08:23:37.255Z,98089.06
2023-10-20T08:26:07.171Z,98072.13
2023-10-20T08:28:39.382Z,98074.59
2023-10-20T08:31:15.242Z,98069.47
2023-10-20T08:33:45.231Z,98089.72
2023-10-20T08:36:16.474Z,98086.34
2023-10-20T08:38:48.726Z,98076.22
2023-10-20T08:41:20.501Z,98056.88
2023-10-20T08:43:50.554Z,98079.72
2023-10-20T08:46:24.779Z,98072.78
2023-10-20T08:48:56.949Z,98061.84
2023-10-20T08:51:27.153Z,98052.66
2023-10-20T08:53:58.001Z,98046.78
2023-10-20T08:56:29.070Z,98086.34
2023-10-20T08:58:59.104Z,98081.31
2023-10-20T09:01:35.634Z,98071.22
2023-10-20T09:04:06.438Z,98046.09
2023-10-20T09:06:38.024Z,98079.69
2023-10-20T09:09:09.537Z,98057.84
2023-10-20T09:11:40.485Z,98077.94
2023-10-20T09:14:11.555Z,98039.19
2023-10-20T09:16:44.611Z,98064.41
2023-10-20T09:19:15.882Z,98073.75
2023-10-20T09:21:49.264Z,98068.47
2023-10-20T09:24:19.223Z,98063.41
2023-10-20T09:26:49.144Z,98028.19
2023-10-20T09:29:19.708Z,98051.59
2023-10-20T09:31:53.446Z,98050.00
2023-10-20T09:34:24.449Z,98056.59
2023-10-20T09:36:57.834Z,98059.97
2023-10-20T09:39:37.259Z,98036.47
2023-10-20T09:42:09.838Z,98044.97
2023-10-20T09:44:43.160Z,98057.75
2023-10-20T09:47:23.600Z,98048.44
2023-10-20T09:49:54.271Z,98058.41
2023-10-20T09:52:24.332Z,98056.75
2023-10-20T09:54:57.316Z,98019.72
2023-10-20T09:57:28.739Z,98065.13
2023-10-20T09:59:58.768Z,97986.16
2023-10-20T10:02:35.650Z,98062.63
2023-10-20T10:05:05.595Z,98039.72
2023-10-20T10:07:37.594Z,98038.88
2023-10-20T10:10:09.032Z,97990.19
2023-10-20T10:12:39.127Z,98033.06
2023-10-20T10:15:14.018Z,98026.31
2023-10-20T10:17:50.475Z,98019.63
2023-10-20T10:20:27.059Z,97982.50
2023-10-20T10:23:04.009Z,98001.84
2023-10-20T10:25:38.216Z,97926.94
2023-10-20T10:28:16.310Z,97966.56
2023-10-20T10:30:47.231Z,97998.50
2023-10-20T10:33:25.567Z,98014.47
2023-10-20T10:36:11.502Z,98025.53
2023-10-20T10:38:46.036Z,98026.31
2023-10-20T10:41:15.997Z,97993.59
2023-10-20T10:43:45.901Z,98020.41
2023-10-20T10:46:15.806Z,98010.53
2023-10-20T10:48:48.703Z,98040.88
2023-10-20T10:51:18.670Z,98031.53
2023-10-20T10:53:48.743Z,98035.75
2023-10-20T10:56:19.108Z,98032.28
2023-10-20T10:58:49.208Z,98039.13
2023-10-20T11:01:19.212Z,98040.81
2023-10-20T11:03:51.862Z,98045.00
2023-10-20T11:06:22.044Z,97966.84
2023-10-20T11:08:51.908Z,98031.53
2023-10-20T11:11:21.792Z,98045.81
2023-10-20T11:13:51.694Z,98039.84
2023-10-20T11:16:24.210Z,98042.38
2023-10-20T11:18:56.904Z,98028.84
2023-10-20T11:21:26.739Z,98019.50
2023-10-20T11:23:57.956Z,98000.94
2023-10-20T11:26:28.030Z,98005.16
2023-10-20T11:28:59.599Z,98000.13
2023-10-20T11:31:33.158Z,97981.72
2023-10-20T11:34:05.868Z,97974.81
2023-10-20T11:36:35.788Z,97971.47
2023-10-20T11:39:07.970Z,97969.69
2023-10-20T11:41:35.300Z,97926.03
2023-10-20T11:44:05.333Z,97953.78
2023-10-20T11:46:35.179Z,97943.69
2023-10-20T11:49:07.855Z,97936.91
2023-10-20T11:51:37.696Z,97935.13
2023-10-20T11:54:08.674Z,97922.44
2023-10-20T11:56:38.524Z,97891.41
2023-10-20T11:59:08.646Z,97932.59
2023-10-20T12:01:38.692Z,97920.00
2023-10-20T12:04:12.351Z,97916.44
2023-10-20T12:06:43.707Z,97917.31
2023-10-20T12:09:16.451Z,97823.31
2023-10-20T12:11:46.878Z,97895.34
2023-10-20T12:14:16.833Z,97884.47
2023-10-20T12:16:46.882Z,97865.81
2023-10-20T12:19:19.718Z,97865.63
2023-10-20T12:21:49.891Z,97850.47
2023-10-20T12:24:19.942Z,97845.38
2023-10-20T12:26:50.047Z,97824.25
2023-10-20T12:29:23.978Z,97818.38
2023-10-20T12:31:54.015Z,97842.06
2023-10-20T12:34:26.649Z,97842.09
2023-10-20T12:36:56.524Z,97846.38
2023-10-20T12:39:29.354Z,97837.91
2023-10-20T12:42:03.905Z,97845.59
2023-10-20T12:44:35.543Z,97832.16
2023-10-20T12:47:07.476Z,97793.53
2023-10-20T12:49:41.092Z,97811.94
2023-10-20T12:52:10.960Z,97733.09
2023-10-20T12:54:40.877Z,97820.31
2023-10-20T12:57:10.854Z,97810.19
2023-10-20T12:59:40.810Z,97766.69
2023-10-20T13:02:11.125Z,97809.34
2023-10-20T13:04:43.641Z,97810.25
2023-10-20T13:07:15.019Z,97798.47
2023-10-20T13:09:45.289Z,97811.06
2023-10-20T13:12:15.194Z,97829.59
2023-10-20T13:14:45.110Z,97833.06
2023-10-20T13:17:15.901Z,97806.16
2023-10-20T13:19:51.048Z,97823.84
2023-10-20T13:22:20.976Z,97810.41
2023-10-20T13:24:50.834Z,97802.81
2023-10-20T13:27:20.711Z,97825.59
2023-10-20T13:29:50.662Z,97826.47
2023-10-20T13:32:20.579Z,97840.78
2023-10-20T13:34:53.503Z,97844.97
2023-10-20T13:37:23.411Z,97836.56
2023-10-20T13:39:54.977Z,97822.34
2023-10-20T13:42:24.938Z,97836.63
2023-10-20T13:44:54.865Z,97797.94
2023-10-20T13:47:27.590Z,97834.91
2023-10-20T13:50:03.412Z,97835.75
2023-10-20T13:52:33.289Z,97802.19
2023-10-20T13:55:03.281Z,97849.22
2023-10-20T13:57:33.215Z,97857.69
2023-10-20T14:00:03.234Z,97873.66
2023-10-20T14:02:37.554Z,97808.88
2023-10-20T14:05:10.699Z,97845.06
2023-10-20T14:07:40.646Z,97888.13
2023-10-20T14:10:11.616Z,97825.19
2023-10-20T14:12:41.527Z,97909.81
2023-10-20T14:15:12.406Z,97907.22
2023-10-20T14:17:42.399Z,97844.22
2023-10-20T14:20:15.513Z,97895.38
2023-10-20T14:22:45.754Z,97868.53
2023-10-20T14:25:15.663Z,97878.59
2023-10-20T14:27:45.587Z,97881.19
2023-10-20T14:30:15.874Z,97883.72
2023-10-20T14:32:45.958Z,97875.28
2023-10-20T14:35:18.687Z,97863.50
2023-10-20T14:37:48.607Z,97859.47
2023-10-20T14:40:18.751Z,97772.19
2023-10-20T14:42:48.704Z,97892.97
2023-10-20T14:45:18.938Z,97879.44
2023-10-20T14:47:48.896Z,97864.22
2023-10-20T14:50:21.561Z,97851.44
2023-10-20T14:52:53.512Z,97793.72
2023-10-20T14:55:24.352Z,97860.91
2023-10-20T14:57:54.240Z,97858.38
2023-10-20T15:00:24.507Z,97860.03
2023-10-20T15:02:54.935Z,97875.19
2023-10-20T15:05:27.547Z,97875.94
2023-10-20T15:07:57.588Z,97864.91
2023-10-20T15:10:30.599Z,97836.31
2023-10-20T15:13:00.552Z,97857.56
2023-10-20T15:15:34.319Z,97866.22
2023-10-20T15:18:05.009Z,97819.47
2023-10-20T15:20:37.626Z,97851.25
2023-10-20T15:23:17.399Z,97856.38
2023-10-20T15:25:51.413Z,97764.03
2023-10-20T15:28:22.284Z,97844.53
2023-10-20T15:30:52.498Z,97812.69
2023-10-20T15:33:36.354Z,97671.03
2023-10-20T15:36:10.576Z,97638.00
2023-10-20T15:38:40.987Z,97578.56
2023-10-20T15:41:11.342Z,97559.25
2023-10-20T15:43:41.321Z,97779.44
2023-10-20T15:46:11.370Z,97784.63
2023-10-20T15:48:51.163Z,97799.00
2023-10-20T15:51:23.673Z,97695.06
2023-10-20T15:53:53.590Z,97810.94
2023-10-20T15:56:23.541Z,97787.19
2023-10-20T15:58:53.437Z,97790.53
2023-10-20T16:01:23.644Z,97791.31
2023-10-20T16:03:53.697Z,97757.75
2023-10-20T16:06:26.295Z,97778.56
2023-10-20T16:08:56.558Z,97775.53
2023-10-20T16:11:26.891Z,97787.00
2023-10-20T16:13:56.868Z,97780.31
2023-10-20T16:16:27.328Z,97747.59
2023-10-20T16:18:57.760Z,97766.13
2023-10-20T16:21:30.646Z,97807.31
2023-10-20T16:24:00.691Z,97778.19
2023-10-20T16:26:30.973Z,97807.38
2023-10-20T16:29:00.938Z,97809.03
2023-10-20T16:31:30.825Z,97806.44
2023-10-20T16:34:00.869Z,97792.94
2023-10-20T16:36:35.332Z,97795.47
2023-10-20T16:39:05.681Z,97785.47
2023-10-20T16:41:36.140Z,97797.91
2023-10-20T16:44:06.081Z,97764.50
2023-10-20T16:46:36.085Z,97807.25
2023-10-20T16:49:06.072Z,97746.81
2023-10-20T16:51:39.381Z,97806.38
2023-10-20T16:54:09.629Z,97806.38
2023-10-20T16:56:39.849Z,97807.22
2023-10-20T16:59:09.787Z,97796.22
2023-10-20T17:01:39.734Z,97795.44
2023-10-20T17:04:09.926Z,97823.16
2023-10-20T17:06:43.015Z,97789.63
2023-10-20T17:09:14.899Z,97800.47
2023-10-20T17:11:45.706Z,97808.91
2023-10-20T17:14:15.688Z,97825.59
2023-10-20T17:16:46.652Z,97819.66
2023-10-20T17:19:16.543Z,97818.06
2023-10-20T17:21:49.118Z,97838.28
2023-10-20T17:24:19.014Z,97842.41
2023-10-20T17:26:50.628Z,97840.66
2023-10-20T17:29:20.608Z,97846.50
2023-10-20T17:31:50.511Z,97851.56
2023-10-20T17:34:20.493Z,97856.66
2023-10-20T17:36:54.279Z,97839.06
2023-10-20T17:39:24.233Z,97852.53
2023-10-20T17:41:54.204Z,97853.31
2023-10-20T17:44:24.784Z,97855.88
2023-10-20T17:46:54.731Z,97845.72
2023-10-20T17:49:24.610Z,97883.56
2023-10-20T17:51:57.126Z,97824.66
2023-10-20T17:54:27.012Z,97866.78
2023-10-20T17:56:56.909Z,97865.03
2023-10-20T17:59:26.848Z,97861.63
2023-10-20T18:01:57.352Z,97860.03
2023-10-20T18:04:27.886Z,97879.19
2023-10-20T18:07:00.462Z,97880.00
2023-10-20T18:09:30.354Z,97894.41
2023-10-20T18:12:00.309Z,97878.31
2023-10-20T18:14:30.255Z,97892.47
2023-10-20T18:17:00.229Z,97878.81
2023-10-20T18:19:30.154Z,97892.25
2023-10-20T18:22:02.618Z,97863.63
2023-10-20T18:24:32.767Z,97853.38
2023-10-20T18:27:02.760Z,97881.16
2023-10-20T18:29:32.850Z,97881.09
2023-10-20T18:32:04.065Z,97855.84
2023-10-20T18:34:33.941Z,97885.31
2023-10-20T18:37:06.589Z,97870.81
2023-10-20T18:39:36.698Z,97873.38
2023-10-20T18:42:07.617Z,97886.06
2023-10-20T18:44:38.154Z,97881.81
2023-10-20T18:47:08.734Z,97885.94
2023-10-20T18:49:38.638Z,97877.47
2023-10-20T18:52:11.483Z,97876.81
2023-10-20T18:54:41.356Z,97836.66
2023-10-20T18:57:11.308Z,97897.84
2023-10-20T18:59:41.210Z,97896.22
2023-10-20T19:02:11.134Z,97873.53
2023-10-20T19:04:41.257Z,97902.66
2023-10-20T19:07:13.980Z,97902.59
2023-10-20T19:09:44.159Z,97908.31
2023-10-20T19:12:14.234Z,97899.84
2023-10-20T19:14:44.190Z,97910.78
2023-10-20T19:17:14.096Z,97909.75
2023-10-20T19:19:44.325Z,97919.09
2023-10-20T19:22:16.889Z,97898.91
2023-10-20T19:24:46.867Z,97935.13
2023-10-20T19:27:16.782Z,97930.97
2023-10-20T19:29:46.716Z,97923.66
2023-10-20T19:32:16.855Z,97926.53
2023-10-20T19:34:46.759Z,97941.59
2023-10-20T19:37:19.223Z,97919.00
2023-10-20T19:39:49.451Z,97927.84
2023-10-20T19:42:19.380Z,97958.00
2023-10-20T19:44:50.469Z,97915.03
2023-10-20T19:47:20.463Z,97950.13
2023-10-20T19:49:50.344Z,97926.72
2023-10-20T19:52:22.829Z,97915.78
2023-10-20T19:54:53.279Z,97965.25
2023-10-20T19:57:23.203Z,97967.69
2023-10-20T19:59:54.059Z,97971.16
2023-10-20T20:02:24.253Z,97968.44
2023-10-20T20:04:55.566Z,97965.16
2023-10-20T20:07:28.885Z,97960.88
2023-10-20T20:09:58.760Z,97954.28
2023-10-20T20:12:28.669Z,97977.72
2023-10-20T20:14:58.577Z,97960.00
2023-10-20T20:17:28.654Z,97985.38
2023-10-20T20:19:59.254Z,97991.13
2023-10-20T20:22:32.480Z,97954.19
2023-10-20T20:25:02.356Z,97971.59
2023-10-20T20:27:33.594Z,97938.94
2023-10-20T20:30:05.645Z,97977.41
2023-10-20T20:32:35.934Z,97976.47
2023-10-20T20:35:07.490Z,97994.16
2023-10-20T20:37:40.067Z,97921.03
2023-10-20T20:40:11.556Z,97983.94
2023-10-20T20:42:41.446Z,97998.22
2023-10-20T20:45:12.818Z,98001.56
2023-10-20T20:47:42.923Z,98003.28
2023-10-20T20:50:22.187Z,97999.78
2023-10-20T20:52:58.947Z,97999.75
2023-10-20T20:55:28.867Z,97987.00
2023-10-20T20:57:58.799Z,97999.75
2023-10-20T21:00:28.696Z,97997.22
2023-10-20T21:02:58.652Z,98003.09
2023-10-20T21:05:28.746Z,97995.44
2023-10-20T21:08:01.247Z,97997.94
2023-10-20T21:10:32.257Z,98005.47
2023-10-20T21:13:02.157Z,97973.78
2023-10-20T21:15:32.055Z,98023.25
2023-10-20T21:18:02.511Z,97969.69
2023-10-20T21:20:32.570Z,98026.75
2023-10-20T21:23:05.042Z,98047.09
2023-10-20T21:25:39.322Z,98048.00
2023-10-20T21:28:10.263Z,98050.81
2023-10-20T21:30:40.275Z,98060.13
2023-10-20T21:33:10.345Z,98021.47
2023-10-20T21:35:44.597Z,98060.94
2023-10-20T21:38:17.678Z,98065.28
2023-10-20T21:40:50.734Z,98032.63
2023-10-20T21:43:20.647Z,98053.53
2023-10-20T21:45:58.292Z,98064.66
2023-10-20T21:48:28.540Z,98048.09
2023-10-20T21:50:59.292Z,98032.97
2023-10-20T21:53:35.439Z,98075.88
2023-10-20T21:56:06.940Z,98073.63
2023-10-20T21:58:38.445Z,98078.66
2023-10-20T22:01:10.304Z,98077.06
2023-10-20T22:03:41.967Z,98064.69
2023-10-20T22:06:12.461Z,98086.72
2023-10-20T22:08:45.042Z,98069.78
2023-10-20T22:11:15.288Z,98049.78
2023-10-20T22:13:45.208Z,98047.31
2023-10-20T22:16:15.559Z,98085.88
2023-10-20T22:18:49.898Z,98104.47
2023-10-20T22:21:20.027Z,98098.53
2023-10-20T22:23:52.545Z,98101.00
2023-10-20T22:26:22.460Z,98080.06
2023-10-20T22:28:52.323Z,98095.91
2023-10-20T22:31:23.330Z,98111.91
2023-10-20T22:33:53.268Z,98074.97
2023-10-20T22:36:23.183Z,98089.94
2023-10-20T22:38:55.700Z,98108.22
2023-10-20T22:41:26.492Z,98103.25
2023-10-20T22:43:57.407Z,98106.66
2023-10-20T22:46:27.320Z,98109.28
2023-10-20T22:48:57.205Z,98023.56
2023-10-20T22:51:27.079Z,98111.75
2023-10-20T22:53:59.591Z,98114.19
2023-10-20T22:56:32.257Z,98113.41
2023-10-20T22:59:02.161Z,98077.41
2023-10-20T23:01:32.036Z,98128.53
2023-10-20T23:04:02.066Z,98127.75
2023-10-20T23:06:32.018Z,98118.50
2023-10-20T23:09:04.685Z,98113.41
2023-10-20T23:11:34.696Z,98124.28
2023-10-20T23:14:04.690Z,98124.34
2023-10-20T23:16:34.530Z,98138.63
2023-10-20T23:19:04.983Z,98134.56
2023-10-20T23:21:34.835Z,98121.09
2023-10-20T23:24:07.854Z,98132.88
2023-10-20T23:26:37.798Z,98126.34
2023-10-20T23:29:07.728Z,98135.59
2023-10-20T23:31:37.574Z,98137.19
2023-10-20T23:34:07.743Z,98146.53
2023-10-20T23:36:37.613Z,98137.41
2023-10-20T23:39:10.092Z,98150.13
2023-10-20T23:41:40.081Z,98150.28
2023-10-20T23:44:10.047Z,98152.91
2023-10-20T23:46:39.941Z,98158.88
2023-10-20T23:49:09.764Z,98142.97
2023-10-20T23:51:39.613Z,98158.97
2023-10-20T23:54:12.201Z,98153.91
2023-10-20T23:56:42.072Z,98153.09
2023-10-20T23:59:11.904Z,98153.16
